Asukamaru — JG5536 — position and weather

sailwx.info

Track history (hours):
 
Tides and Currents Weather Stations Pressure Air Temp Water Temp Dewpoint Dewpoint Depression Visibility Wind Speed Wind Dir Waves Ship Positions

Asukamaru

Last reported at 2018-Feb-17 23:40 UTC. Time now 2018-Feb-18 04:46 UTC.
Position N 35°38' E 139°45'.

Length 31 m; draft 3 m.

Type: Tug. MMSI: 431001145.

Date/timePositionNaut miles runAvg speedWind from/ knotsBaromVisibWave heightAir tempDewpointWater temp
2018-Feb-17 23:40N 35°38' E 139°45'0 0.0
2018-Feb-17 23:20N 35°38' E 139°45'2 4.8
2018-Feb-17 22:55N 35°36' E 139°46'1 2.7
2018-Feb-17 22:30N 35°36' E 139°47'1 1.1
2018-Feb-17 21:53N 35°36' E 139°46'2 0.2
2018-Feb-17 10:41N 35°38' E 139°45'1 8.1
2018-Feb-17 10:30N 35°37' E 139°46'1 1.4
2018-Feb-17 10:00N 35°36' E 139°46'2 2.9
2018-Feb-17 09:28N 35°35' E 139°48'4 8.1
2018-Feb-17 09:00N 35°33' E 139°51'2 3.9
2018-Feb-17 08:30N 35°34' E 139°49'510.5
2018-Feb-17 08:00N 35°38' E 139°45'0 0.0
2018-Feb-17 06:51N 35°38' E 139°45'2 5.9
2018-Feb-17 06:28N 35°36' E 139°46'0 0.2
2018-Feb-17 05:42N 35°36' E 139°46'2 9.0
2018-Feb-17 05:30N 35°38' E 139°46'0 0.1
2018-Feb-16 21:50N 35°38' E 139°45'0 0.0
2018-Feb-16 21:15N 35°38' E 139°45'0 0.0
2018-Feb-16 20:41N 35°38' E 139°45'0 0.0
2018-Feb-16 20:29N 35°38' E 139°45'0 0.0
2018-Feb-16 09:01N 35°38' E 139°45'0 0.0
2018-Feb-16 08:50N 35°38' E 139°45'0 0.0
2018-Feb-16 08:30N 35°38' E 139°45'0 0.0
2018-Feb-16 08:00N 35°38' E 139°45'0 0.0
2018-Feb-16 07:05N 35°38' E 139°45'0 0.0
2018-Feb-16 00:36N 35°38' E 139°45'1 7.0
2018-Feb-16 00:29N 35°37' E 139°46'1 2.9
2018-Feb-16 00:00N 35°36' E 139°47'2 4.2
2018-Feb-15 23:29N 35°34' E 139°48'2 3.2
2018-Feb-15 22:45N 35°36' E 139°46'1 2.1
2018-Feb-15 22:30N 35°36' E 139°47'4 8.4
2018-Feb-15 22:00N 35°33' E 139°51'1 1.9
2018-Feb-15 21:27N 35°34' E 139°52'510.6
2018-Feb-15 20:58N 35°37' E 139°46'2 0.1
2018-Feb-15 09:43N 35°38' E 139°46'210.8
2018-Feb-15 09:29N 35°36' E 139°47'0 0.9
2018-Feb-15 08:59N 35°36' E 139°47'1 1.2
2018-Feb-15 08:26N 35°35' E 139°48'4 4.6
2018-Feb-15 07:39N 35°38' E 139°45'0 0.0
2018-Feb-15 07:28N 35°38' E 139°45'0 0.0
2018-Feb-15 01:17N 35°38' E 139°45'0 0.0
2018-Feb-14 23:32N 35°38' E 139°45'0 0.0
2018-Feb-14 23:15N 35°38' E 139°45'0 0.0
2018-Feb-14 10:46N 35°38' E 139°45'1 2.0
2018-Feb-14 10:24N 35°37' E 139°46'0 1.1
2018-Feb-14 10:00N 35°37' E 139°46'2 4.8
2018-Feb-14 09:30N 35°35' E 139°48'1 1.9
2018-Feb-14 09:00N 35°35' E 139°47'0 0.0
2018-Feb-14 08:30N 35°35' E 139°47'0 0.0
2018-Feb-14 08:00N 35°35' E 139°47'0 0.5
2018-Feb-14 07:30N 35°35' E 139°47'2 3.4
2018-Feb-14 07:00N 35°37' E 139°46'1 0.8
2018-Feb-14 05:14N 35°38' E 139°45'0 0.0
2018-Feb-14 04:58N 35°38' E 139°45'0 0.0
2018-Feb-14 04:28N 35°38' E 139°45'0 0.0
2018-Feb-14 04:00N 35°38' E 139°45'0 0.0
2018-Feb-14 03:28N 35°38' E 139°45'0 0.0
2018-Feb-14 03:00N 35°38' E 139°45'0 0.0
2018-Feb-14 02:29N 35°38' E 139°45'0 0.0
2018-Feb-14 01:48N 35°38' E 139°45'0 0.0
2018-Feb-14 01:28N 35°38' E 139°45'0 0.0
2018-Feb-14 00:59N 35°38' E 139°45'0 0.0
2018-Feb-14 00:30N 35°38' E 139°45'0 0.0
2018-Feb-13 23:59N 35°38' E 139°45'2 5.0
2018-Feb-13 23:30N 35°36' E 139°46'0 0.5
2018-Feb-13 23:00N 35°36' E 139°47'3 5.3
2018-Feb-13 22:30N 35°34' E 139°49'3 5.5
2018-Feb-13 22:00N 35°36' E 139°47'2 4.4
2018-Feb-13 21:30N 35°38' E 139°45'0 0.0
2018-Feb-13 20:58N 35°38' E 139°45'0 0.0
2018-Feb-13 20:27N 35°38' E 139°45'0 0.0
2018-Feb-13 19:56N 35°38' E 139°45'0 0.0
2018-Feb-13 19:30N 35°38' E 139°45'0 0.0
2018-Feb-13 18:59N 35°38' E 139°45'0 0.0
2018-Feb-13 18:23N 35°38' E 139°45'0 0.0
2018-Feb-13 18:00N 35°38' E 139°45'0 0.0
2018-Feb-13 17:30N 35°38' E 139°45'0 0.0
2018-Feb-13 16:58N 35°38' E 139°45'0 0.0
2018-Feb-13 16:29N 35°38' E 139°45'0 0.0
2018-Feb-13 15:58N 35°38' E 139°45'0 0.0
2018-Feb-13 15:21N 35°38' E 139°45'0 0.0
2018-Feb-13 14:57N 35°38' E 139°45'0 0.0
2018-Feb-13 14:29N 35°38' E 139°45'0 0.0
2018-Feb-13 13:51N 35°38' E 139°45'0 0.0
2018-Feb-13 13:29N 35°38' E 139°45'0 0.0
2018-Feb-13 13:00N 35°38' E 139°45'0 0.0
2018-Feb-13 12:26N 35°38' E 139°45'0 0.0
2018-Feb-13 11:59N 35°38' E 139°45'0 0.0
2018-Feb-13 11:30N 35°38' E 139°45'0 0.0
2018-Feb-13 11:00N 35°38' E 139°45'0 0.0
2018-Feb-13 10:28N 35°38' E 139°45'0 0.0
2018-Feb-13 09:56N 35°38' E 139°45'0 0.0
2018-Feb-13 09:27N 35°38' E 139°45'0 0.0
2018-Feb-13 08:58N 35°38' E 139°45'0 0.0
2018-Feb-13 08:30N 35°38' E 139°45'0 0.0
2018-Feb-13 08:00N 35°38' E 139°45'0 0.0
2018-Feb-13 07:30N 35°38' E 139°45'0 0.0
2018-Feb-12 23:40N 35°38' E 139°45'0 0.0
2018-Feb-12 11:06N 35°38' E 139°45'0 0.0
2018-Feb-12 09:38N 35°38' E 139°45'1 9.6
2018-Feb-12 09:30N 35°37' E 139°46'1 2.1
2018-Feb-12 09:00N 35°36' E 139°46'3 4.8
2018-Feb-12 08:29N 35°34' E 139°49'3 5.9
2018-Feb-12 08:00N 35°36' E 139°46'2 3.6
2018-Feb-12 07:25N 35°38' E 139°45'0 0.0
2018-Feb-12 00:39N 35°38' E 139°45'1 6.7
2018-Feb-12 00:30N 35°39' E 139°47'1 1.8
2018-Feb-12 00:00N 35°38' E 139°46'0 0.2
2018-Feb-11 23:09N 35°38' E 139°45'1 5.6
2018-Feb-11 23:00N 35°37' E 139°46'0 1.0
2018-Feb-11 22:30N 35°37' E 139°46'3 6.4
2018-Feb-11 22:00N 35°34' E 139°48'2 4.5
2018-Feb-11 21:30N 35°36' E 139°46'2 0.4
2018-Feb-11 16:12N 35°38' E 139°45'0 0.0
2018-Feb-11 07:42N 35°38' E 139°46'311.2
2018-Feb-11 07:28N 35°36' E 139°47'0 0.9
2018-Feb-11 06:56N 35°36' E 139°47'2 0.3
2018-Feb-10 22:52N 35°38' E 139°46'2 5.4
2018-Feb-10 22:29N 35°36' E 139°46'2 3.3
2018-Feb-10 22:00N 35°35' E 139°48'1 1.5
2018-Feb-10 21:29N 35°36' E 139°47'3 0.6
2018-Feb-10 16:44N 35°38' E 139°45'0 0.0
2018-Feb-10 09:45N 35°38' E 139°45'2 8.8
2018-Feb-10 09:30N 35°36' E 139°47'0 0.4
2018-Feb-10 09:00N 35°36' E 139°47'2 4.7
2018-Feb-10 08:30N 35°34' E 139°49'3 5.2
2018-Feb-10 07:59N 35°36' E 139°47'0 0.2
2018-Feb-10 07:29N 35°37' E 139°47'2 0.2
2018-Feb-09 22:15N 35°38' E 139°46'3 3.7
2018-Feb-09 21:30N 35°36' E 139°48'10 0.6
2018-Feb-09 04:00N 35°29' E 139°39'0 0.0
2018-Feb-09 03:30N 35°29' E 139°39'0 0.0
2018-Feb-09 02:30N 35°29' E 139°39'0 0.0
2018-Feb-09 02:00N 35°29' E 139°39'0 0.0
2018-Feb-09 01:00N 35°29' E 139°39'0 0.1
2018-Feb-09 00:30N 35°29' E 139°39'0 0.0
2018-Feb-09 00:00N 35°29' E 139°39'0 0.0
2018-Feb-08 23:30N 35°29' E 139°39'0 0.0
2018-Feb-08 23:00N 35°29' E 139°39'0 0.0
2018-Feb-08 21:30N 35°29' E 139°39'0 0.0
2018-Feb-08 21:00N 35°29' E 139°39'0 0.0
2018-Feb-08 20:30N 35°29' E 139°39'0 0.0
2018-Feb-08 19:30N 35°29' E 139°39'0 0.0
2018-Feb-08 18:30N 35°29' E 139°39'0 0.0
2018-Feb-08 18:00N 35°29' E 139°39'0 0.0
2018-Feb-08 17:30N 35°29' E 139°39'0 0.0
2018-Feb-08 17:00N 35°29' E 139°39'0 0.0
2018-Feb-08 15:00N 35°29' E 139°39'0 0.0
2018-Feb-08 14:30N 35°29' E 139°39'0 0.0
2018-Feb-08 14:00N 35°29' E 139°39'0 0.0
2018-Feb-08 13:30N 35°29' E 139°39'0 0.0
2018-Feb-08 13:00N 35°29' E 139°39'0 0.0
2018-Feb-08 11:30N 35°29' E 139°39'0 0.0
2018-Feb-08 11:00N 35°29' E 139°39'0 0.0
2018-Feb-08 10:30N 35°29' E 139°39'0 0.0
2018-Feb-08 10:00N 35°29' E 139°39'0 0.0
2018-Feb-08 09:30N 35°29' E 139°39'0 0.0
2018-Feb-08 08:30N 35°29' E 139°39'0 0.0
2018-Feb-08 08:00N 35°29' E 139°39'0 0.0
2018-Feb-08 05:30N 35°29' E 139°39'0 0.0
2018-Feb-08 05:00N 35°29' E 139°39'0 0.0
2018-Feb-08 04:30N 35°29' E 139°39'0 0.0
2018-Feb-08 04:00N 35°29' E 139°39'0 0.0
2018-Feb-08 01:30N 35°29' E 139°39'0 0.0
2018-Feb-08 01:01N 35°29' E 139°39'0 0.0
2018-Feb-08 00:30N 35°29' E 139°39'0 0.0
2018-Feb-08 00:00N 35°29' E 139°39'  
Track history (hours):
 
Tides and Currents Weather Stations Pressure Air Temp Water Temp Dewpoint Dewpoint Depression Visibility Wind Speed Wind Dir Waves Ship Positions

Asukamaru

Last reported at 2018-Feb-17 23:40 UTC. Time now 2018-Feb-18 04:46 UTC.
Position N 35°38' E 139°45'.

Length 31 m; draft 3 m.

Type: Tug. MMSI: 431001145.

Date/timePositionNaut miles runAvg speedWind from/ knotsBaromVisibWave heightAir tempDewpointWater temp
2018-Feb-17 23:40N 35°38' E 139°45'0 0.0
2018-Feb-17 23:20N 35°38' E 139°45'2 4.8
2018-Feb-17 22:55N 35°36' E 139°46'1 2.7
2018-Feb-17 22:30N 35°36' E 139°47'1 1.1
2018-Feb-17 21:53N 35°36' E 139°46'2 0.2
2018-Feb-17 10:41N 35°38' E 139°45'1 8.1
2018-Feb-17 10:30N 35°37' E 139°46'1 1.4
2018-Feb-17 10:00N 35°36' E 139°46'2 2.9
2018-Feb-17 09:28N 35°35' E 139°48'4 8.1
2018-Feb-17 09:00N 35°33' E 139°51'2 3.9
2018-Feb-17 08:30N 35°34' E 139°49'510.5
2018-Feb-17 08:00N 35°38' E 139°45'0 0.0
2018-Feb-17 06:51N 35°38' E 139°45'2 5.9
2018-Feb-17 06:28N 35°36' E 139°46'0 0.2
2018-Feb-17 05:42N 35°36' E 139°46'2 9.0
2018-Feb-17 05:30N 35°38' E 139°46'0 0.1
2018-Feb-16 21:50N 35°38' E 139°45'0 0.0
2018-Feb-16 21:15N 35°38' E 139°45'0 0.0
2018-Feb-16 20:41N 35°38' E 139°45'0 0.0
2018-Feb-16 20:29N 35°38' E 139°45'0 0.0
2018-Feb-16 09:01N 35°38' E 139°45'0 0.0
2018-Feb-16 08:50N 35°38' E 139°45'0 0.0
2018-Feb-16 08:30N 35°38' E 139°45'0 0.0
2018-Feb-16 08:00N 35°38' E 139°45'0 0.0
2018-Feb-16 07:05N 35°38' E 139°45'0 0.0
2018-Feb-16 00:36N 35°38' E 139°45'1 7.0
2018-Feb-16 00:29N 35°37' E 139°46'1 2.9
2018-Feb-16 00:00N 35°36' E 139°47'2 4.2
2018-Feb-15 23:29N 35°34' E 139°48'2 3.2
2018-Feb-15 22:45N 35°36' E 139°46'1 2.1
2018-Feb-15 22:30N 35°36' E 139°47'4 8.4
2018-Feb-15 22:00N 35°33' E 139°51'1 1.9
2018-Feb-15 21:27N 35°34' E 139°52'510.6
2018-Feb-15 20:58N 35°37' E 139°46'2 0.1
2018-Feb-15 09:43N 35°38' E 139°46'210.8
2018-Feb-15 09:29N 35°36' E 139°47'0 0.9
2018-Feb-15 08:59N 35°36' E 139°47'1 1.2
2018-Feb-15 08:26N 35°35' E 139°48'4 4.6
2018-Feb-15 07:39N 35°38' E 139°45'0 0.0
2018-Feb-15 07:28N 35°38' E 139°45'0 0.0
2018-Feb-15 01:17N 35°38' E 139°45'0 0.0
2018-Feb-14 23:32N 35°38' E 139°45'0 0.0
2018-Feb-14 23:15N 35°38' E 139°45'0 0.0
2018-Feb-14 10:46N 35°38' E 139°45'1 2.0
2018-Feb-14 10:24N 35°37' E 139°46'0 1.1
2018-Feb-14 10:00N 35°37' E 139°46'2 4.8
2018-Feb-14 09:30N 35°35' E 139°48'1 1.9
2018-Feb-14 09:00N 35°35' E 139°47'0 0.0
2018-Feb-14 08:30N 35°35' E 139°47'0 0.0
2018-Feb-14 08:00N 35°35' E 139°47'0 0.5
2018-Feb-14 07:30N 35°35' E 139°47'2 3.4
2018-Feb-14 07:00N 35°37' E 139°46'1 0.8
2018-Feb-14 05:14N 35°38' E 139°45'0 0.0
2018-Feb-14 04:58N 35°38' E 139°45'0 0.0
2018-Feb-14 04:28N 35°38' E 139°45'0 0.0
2018-Feb-14 04:00N 35°38' E 139°45'0 0.0
2018-Feb-14 03:28N 35°38' E 139°45'0 0.0
2018-Feb-14 03:00N 35°38' E 139°45'0 0.0
2018-Feb-14 02:29N 35°38' E 139°45'0 0.0
2018-Feb-14 01:48N 35°38' E 139°45'0 0.0
2018-Feb-14 01:28N 35°38' E 139°45'0 0.0
2018-Feb-14 00:59N 35°38' E 139°45'0 0.0
2018-Feb-14 00:30N 35°38' E 139°45'0 0.0
2018-Feb-13 23:59N 35°38' E 139°45'2 5.0
2018-Feb-13 23:30N 35°36' E 139°46'0 0.5
2018-Feb-13 23:00N 35°36' E 139°47'3 5.3
2018-Feb-13 22:30N 35°34' E 139°49'3 5.5
2018-Feb-13 22:00N 35°36' E 139°47'2 4.4
2018-Feb-13 21:30N 35°38' E 139°45'0 0.0
2018-Feb-13 20:58N 35°38' E 139°45'0 0.0
2018-Feb-13 20:27N 35°38' E 139°45'0 0.0
2018-Feb-13 19:56N 35°38' E 139°45'0 0.0
2018-Feb-13 19:30N 35°38' E 139°45'0 0.0
2018-Feb-13 18:59N 35°38' E 139°45'0 0.0
2018-Feb-13 18:23N 35°38' E 139°45'0 0.0
2018-Feb-13 18:00N 35°38' E 139°45'0 0.0
2018-Feb-13 17:30N 35°38' E 139°45'0 0.0
2018-Feb-13 16:58N 35°38' E 139°45'0 0.0
2018-Feb-13 16:29N 35°38' E 139°45'0 0.0
2018-Feb-13 15:58N 35°38' E 139°45'0 0.0
2018-Feb-13 15:21N 35°38' E 139°45'0 0.0
2018-Feb-13 14:57N 35°38' E 139°45'0 0.0
2018-Feb-13 14:29N 35°38' E 139°45'0 0.0
2018-Feb-13 13:51N 35°38' E 139°45'0 0.0
2018-Feb-13 13:29N 35°38' E 139°45'0 0.0
2018-Feb-13 13:00N 35°38' E 139°45'0 0.0
2018-Feb-13 12:26N 35°38' E 139°45'0 0.0
2018-Feb-13 11:59N 35°38' E 139°45'0 0.0
2018-Feb-13 11:30N 35°38' E 139°45'0 0.0
2018-Feb-13 11:00N 35°38' E 139°45'0 0.0
2018-Feb-13 10:28N 35°38' E 139°45'0 0.0
2018-Feb-13 09:56N 35°38' E 139°45'0 0.0
2018-Feb-13 09:27N 35°38' E 139°45'0 0.0
2018-Feb-13 08:58N 35°38' E 139°45'0 0.0
2018-Feb-13 08:30N 35°38' E 139°45'0 0.0
2018-Feb-13 08:00N 35°38' E 139°45'0 0.0
2018-Feb-13 07:30N 35°38' E 139°45'0 0.0
2018-Feb-12 23:40N 35°38' E 139°45'0 0.0
2018-Feb-12 11:06N 35°38' E 139°45'0 0.0
2018-Feb-12 09:38N 35°38' E 139°45'1 9.6
2018-Feb-12 09:30N 35°37' E 139°46'1 2.1
2018-Feb-12 09:00N 35°36' E 139°46'3 4.8
2018-Feb-12 08:29N 35°34' E 139°49'3 5.9
2018-Feb-12 08:00N 35°36' E 139°46'2 3.6
2018-Feb-12 07:25N 35°38' E 139°45'0 0.0
2018-Feb-12 00:39N 35°38' E 139°45'1 6.7
2018-Feb-12 00:30N 35°39' E 139°47'1 1.8
2018-Feb-12 00:00N 35°38' E 139°46'0 0.2
2018-Feb-11 23:09N 35°38' E 139°45'1 5.6
2018-Feb-11 23:00N 35°37' E 139°46'0 1.0
2018-Feb-11 22:30N 35°37' E 139°46'3 6.4
2018-Feb-11 22:00N 35°34' E 139°48'2 4.5
2018-Feb-11 21:30N 35°36' E 139°46'2 0.4
2018-Feb-11 16:12N 35°38' E 139°45'0 0.0
2018-Feb-11 07:42N 35°38' E 139°46'311.2
2018-Feb-11 07:28N 35°36' E 139°47'0 0.9
2018-Feb-11 06:56N 35°36' E 139°47'2 0.3
2018-Feb-10 22:52N 35°38' E 139°46'2 5.4
2018-Feb-10 22:29N 35°36' E 139°46'2 3.3
2018-Feb-10 22:00N 35°35' E 139°48'1 1.5
2018-Feb-10 21:29N 35°36' E 139°47'3 0.6
2018-Feb-10 16:44N 35°38' E 139°45'0 0.0
2018-Feb-10 09:45N 35°38' E 139°45'2 8.8
2018-Feb-10 09:30N 35°36' E 139°47'0 0.4
2018-Feb-10 09:00N 35°36' E 139°47'2 4.7
2018-Feb-10 08:30N 35°34' E 139°49'3 5.2
2018-Feb-10 07:59N 35°36' E 139°47'0 0.2
2018-Feb-10 07:29N 35°37' E 139°47'2 0.2
2018-Feb-09 22:15N 35°38' E 139°46'3 3.7
2018-Feb-09 21:30N 35°36' E 139°48'10 0.6
2018-Feb-09 04:00N 35°29' E 139°39'0 0.0
2018-Feb-09 03:30N 35°29' E 139°39'0 0.0
2018-Feb-09 02:30N 35°29' E 139°39'0 0.0
2018-Feb-09 02:00N 35°29' E 139°39'0 0.0
2018-Feb-09 01:00N 35°29' E 139°39'0 0.1
2018-Feb-09 00:30N 35°29' E 139°39'0 0.0
2018-Feb-09 00:00N 35°29' E 139°39'0 0.0
2018-Feb-08 23:30N 35°29' E 139°39'0 0.0
2018-Feb-08 23:00N 35°29' E 139°39'0 0.0
2018-Feb-08 21:30N 35°29' E 139°39'0 0.0
2018-Feb-08 21:00N 35°29' E 139°39'0 0.0
2018-Feb-08 20:30N 35°29' E 139°39'0 0.0
2018-Feb-08 19:30N 35°29' E 139°39'0 0.0
2018-Feb-08 18:30N 35°29' E 139°39'0 0.0
2018-Feb-08 18:00N 35°29' E 139°39'0 0.0
2018-Feb-08 17:30N 35°29' E 139°39'0 0.0
2018-Feb-08 17:00N 35°29' E 139°39'0 0.0
2018-Feb-08 15:00N 35°29' E 139°39'0 0.0
2018-Feb-08 14:30N 35°29' E 139°39'0 0.0
2018-Feb-08 14:00N 35°29' E 139°39'0 0.0
2018-Feb-08 13:30N 35°29' E 139°39'0 0.0
2018-Feb-08 13:00N 35°29' E 139°39'0 0.0
2018-Feb-08 11:30N 35°29' E 139°39'0 0.0
2018-Feb-08 11:00N 35°29' E 139°39'0 0.0
2018-Feb-08 10:30N 35°29' E 139°39'0 0.0
2018-Feb-08 10:00N 35°29' E 139°39'0 0.0
2018-Feb-08 09:30N 35°29' E 139°39'0 0.0
2018-Feb-08 08:30N 35°29' E 139°39'0 0.0
2018-Feb-08 08:00N 35°29' E 139°39'0 0.0
2018-Feb-08 05:30N 35°29' E 139°39'0 0.0
2018-Feb-08 05:00N 35°29' E 139°39'0 0.0
2018-Feb-08 04:30N 35°29' E 139°39'0 0.0
2018-Feb-08 04:00N 35°29' E 139°39'0 0.0
2018-Feb-08 01:30N 35°29' E 139°39'0 0.0
2018-Feb-08 01:01N 35°29' E 139°39'0 0.0
2018-Feb-08 00:30N 35°29' E 139°39'0 0.0
2018-Feb-08 00:00N 35°29' E 139°39'  

Dump ship's entire track history